Weaverville, CA (96093)

4:07 AM PDT on April 19, 2015 (GMT -0700)
RAWS | | Change Station
CLOSE
Current Station
Personal Weather Station
Location: Weaverville, CA
Elevation: 2511 ft
Nearby Weather Stations

Elev 2511 ft 40.76 °N, 122.92 °W | Updated 47 minutes ago

Scattered Clouds
Scattered Clouds
50 °F
Feels Like 50 °F
N
0
Wind Variable Wind from North
Gusts 0.0 mph

Today
High -- | Low -- °F
--% Chance of Precip.
Yesterday
High -- | Low -- °F
Precip. -- in
6:27 AM 7:55 PM
New Moon, 1% visible
Pressure 30.03 in
Visibility 10.0 miles
Clouds Scattered Clouds 2000 ft
Dew Point 39 °F
Humidity 66%
Rainfall in
Snow Depth Not available.
UV 0 out of 12
Pollen 10.40 out of 12
Air Quality Not available.
Flu Activity Sporadic
METAR KO54 191035Z AUTO 00000KT 10SM SCT020 07/03 A3003 RMK AO1

More Conditions Fewer Conditions

Pressure 30.03 in
Visibility 10.0 miles
Clouds Scattered Clouds 2000 ft
Dew Point 39 °F
Humidity 66%
Rainfall in
Snow Depth Not available.
UV 0 out of 12
Pollen 10.40 out of 12
Air Quality Not available.
Flu Activity Sporadic
METAR KO54 191035Z AUTO 00000KT 10SM SCT020 07/03 A3003 RMK AO1

More Conditions Fewer Conditions

10-Day Weather Forecast

Almanac

Astronomy

Apr. 19, 2015 Rise Set
Actual Time
Civil Twilight
Nautical Twilight
Astronomical Twilight
Moon
Length of Visible Light
Length of Day
Tomorrow will be .
, % of the Moon is Illuminated

Today's Extremes

State Highs State Lows

Community

WunderPhotos

Upload Photos

1,814,756 photos uploaded!

WunderBlogs® & News

Nearby

Air Quality

  Air Quality AQ Index Pollutant
Not available.

Snow Depth

Station Depth Elevation

Earthquake Activity

City Distance Mag. Time & Date
Minimum magnitude displayed is 2.5.

Coastal Water Temperatures

Place Temperature

Stations

Nearby Weather Stations

Station Location Temp. Windchill Dew Point Humidity Wind Precip. Elev Updated Type